sensor_id;sensor_type;location;lat;lon;timestamp;temperature;humidity
42989;DHT22;28622;43.716;20.668;2023-02-11T00:00:34;-3.60;99.90
42989;DHT22;28622;43.716;20.668;2023-02-11T00:03:00;-3.60;99.90
42989;DHT22;28622;43.716;20.668;2023-02-11T00:05:26;-3.70;99.90
42989;DHT22;28622;43.716;20.668;2023-02-11T00:07:51;-3.70;99.90
42989;DHT22;28622;43.716;20.668;2023-02-11T00:10:17;-3.70;99.90
42989;DHT22;28622;43.716;20.668;2023-02-11T00:12:43;-3.70;99.90
42989;DHT22;28622;43.716;20.668;2023-02-11T00:15:09;-3.80;99.90
42989;DHT22;28622;43.716;20.668;2023-02-11T00:17:35;-3.80;99.90
42989;DHT22;28622;43.716;20.668;2023-02-11T00:20:01;-3.80;99.90
42989;DHT22;28622;43.716;20.668;2023-02-11T00:22:26;-3.80;99.90
42989;DHT22;28622;43.716;20.668;2023-02-11T00:24:52;-3.90;99.90
42989;DHT22;28622;43.716;20.668;2023-02-11T00:27:18;-3.80;99.90
42989;DHT22;28622;43.716;20.668;2023-02-11T00:29:44;-3.90;99.90
42989;DHT22;28622;43.716;20.668;2023-02-11T00:32:10;-3.90;99.90
42989;DHT22;28622;43.716;20.668;2023-02-11T00:34:36;-3.80;99.90
42989;DHT22;28622;43.716;20.668;2023-02-11T00:37:03;-3.90;99.90
42989;DHT22;28622;43.716;20.668;2023-02-11T00:39:29;-3.90;99.90
42989;DHT22;28622;43.716;20.668;2023-02-11T00:41:56;-3.90;99.90
42989;DHT22;28622;43.716;20.668;2023-02-11T00:44:21;-3.90;99.90
42989;DHT22;28622;43.716;20.668;2023-02-11T00:46:47;-3.90;99.90
42989;DHT22;28622;43.716;20.668;2023-02-11T00:49:14;-4.00;99.90
42989;DHT22;28622;43.716;20.668;2023-02-11T00:51:40;-4.00;99.90
42989;DHT22;28622;43.716;20.668;2023-02-11T00:54:06;-4.00;99.90
42989;DHT22;28622;43.716;20.668;2023-02-11T00:56:32;-4.10;99.90
42989;DHT22;28622;43.716;20.668;2023-02-11T00:58:58;-4.20;99.90
42989;DHT22;28622;43.716;20.668;2023-02-11T01:01:23;-4.20;99.90
42989;DHT22;28622;43.716;20.668;2023-02-11T01:03:49;-4.20;99.90
42989;DHT22;28622;43.716;20.668;2023-02-11T01:06:15;-4.10;99.90
42989;DHT22;28622;43.716;20.668;2023-02-11T01:08:41;-4.10;99.90
42989;DHT22;28622;43.716;20.668;2023-02-11T01:11:13;-4.20;99.90
42989;DHT22;28622;43.716;20.668;2023-02-11T01:13:39;-4.30;99.90
42989;DHT22;28622;43.716;20.668;2023-02-11T01:16:09;-4.30;99.90
42989;DHT22;28622;43.716;20.668;2023-02-11T01:18:35;-4.30;99.90
42989;DHT22;28622;43.716;20.668;2023-02-11T01:21:02;-4.30;99.90
42989;DHT22;28622;43.716;20.668;2023-02-11T01:23:27;-4.30;99.90
42989;DHT22;28622;43.716;20.668;2023-02-11T01:25:53;-4.30;99.90
42989;DHT22;28622;43.716;20.668;2023-02-11T01:28:21;-4.30;99.90
42989;DHT22;28622;43.716;20.668;2023-02-11T01:30:48;-4.30;99.90
42989;DHT22;28622;43.716;20.668;2023-02-11T01:33:14;-4.30;99.90
42989;DHT22;28622;43.716;20.668;2023-02-11T01:35:40;-4.30;99.90
42989;DHT22;28622;43.716;20.668;2023-02-11T01:38:07;-4.40;99.90
42989;DHT22;28622;43.716;20.668;2023-02-11T01:40:33;-4.40;99.90
42989;DHT22;28622;43.716;20.668;2023-02-11T01:42:59;-4.40;99.90
42989;DHT22;28622;43.716;20.668;2023-02-11T01:48:13;-4.40;99.90
42989;DHT22;28622;43.716;20.668;2023-02-11T01:50:40;-4.50;99.90
42989;DHT22;28622;43.716;20.668;2023-02-11T01:53:08;-4.60;99.90
42989;DHT22;28622;43.716;20.668;2023-02-11T01:55:53;-4.60;99.90
42989;DHT22;28622;43.716;20.668;2023-02-11T01:58:41;-4.60;99.90
42989;DHT22;28622;43.716;20.668;2023-02-11T02:01:12;-4.60;99.90
42989;DHT22;28622;43.716;20.668;2023-02-11T02:03:42;-4.60;99.90
42989;DHT22;28622;43.716;20.668;2023-02-11T02:06:21;-4.60;99.90
42989;DHT22;28622;43.716;20.668;2023-02-11T02:11:19;-4.70;99.90
42989;DHT22;28622;43.716;20.668;2023-02-11T02:13:45;-4.80;99.90
42989;DHT22;28622;43.716;20.668;2023-02-11T02:16:13;-4.80;99.90
42989;DHT22;28622;43.716;20.668;2023-02-11T02:27:28;-4.80;99.90
42989;DHT22;28622;43.716;20.668;2023-02-11T02:33:12;-4.90;99.90
42989;DHT22;28622;43.716;20.668;2023-02-11T02:41:23;-4.90;99.90
42989;DHT22;28622;43.716;20.668;2023-02-11T02:43:51;-5.00;99.90
42989;DHT22;28622;43.716;20.668;2023-02-11T02:48:50;-5.00;99.90
42989;DHT22;28622;43.716;20.668;2023-02-11T02:56:55;-5.10;99.90
42989;DHT22;28622;43.716;20.668;2023-02-11T02:59:56;-5.00;99.90
42989;DHT22;28622;43.716;20.668;2023-02-11T03:02:57;-5.00;99.90
42989;DHT22;28622;43.716;20.668;2023-02-11T03:10:56;-5.20;99.90
42989;DHT22;28622;43.716;20.668;2023-02-11T03:13:26;-5.20;99.90
42989;DHT22;28622;43.716;20.668;2023-02-11T03:15:56;-5.20;99.90
42989;DHT22;28622;43.716;20.668;2023-02-11T03:18:26;-5.20;99.90
42989;DHT22;28622;43.716;20.668;2023-02-11T03:20:54;-5.20;99.90
42989;DHT22;28622;43.716;20.668;2023-02-11T03:23:45;-5.20;99.90
42989;DHT22;28622;43.716;20.668;2023-02-11T03:26:17;-5.10;99.90
42989;DHT22;28622;43.716;20.668;2023-02-11T03:31:50;-5.10;99.90
42989;DHT22;28622;43.716;20.668;2023-02-11T03:34:31;-5.10;99.90
42989;DHT22;28622;43.716;20.668;2023-02-11T03:37:13;-5.10;99.90
42989;DHT22;28622;43.716;20.668;2023-02-11T03:42:58;-5.10;99.90
42989;DHT22;28622;43.716;20.668;2023-02-11T03:45:26;-5.10;99.90
42989;DHT22;28622;43.716;20.668;2023-02-11T03:48:04;-5.10;99.90
42989;DHT22;28622;43.716;20.668;2023-02-11T03:50:32;-5.10;99.90
42989;DHT22;28622;43.716;20.668;2023-02-11T03:53:00;-5.10;99.90
42989;DHT22;28622;43.716;20.668;2023-02-11T03:55:27;-5.10;99.90
42989;DHT22;28622;43.716;20.668;2023-02-11T03:57:55;-5.20;99.90
42989;DHT22;28622;43.716;20.668;2023-02-11T04:00:31;-5.20;99.90
42989;DHT22;28622;43.716;20.668;2023-02-11T04:02:57;-5.20;99.90
42989;DHT22;28622;43.716;20.668;2023-02-11T04:05:23;-5.20;99.90
42989;DHT22;28622;43.716;20.668;2023-02-11T04:07:49;-5.20;99.90
42989;DHT22;28622;43.716;20.668;2023-02-11T04:10:15;-5.20;99.90
42989;DHT22;28622;43.716;20.668;2023-02-11T04:12:41;-5.20;99.90
42989;DHT22;28622;43.716;20.668;2023-02-11T04:15:07;-5.30;99.90
42989;DHT22;28622;43.716;20.668;2023-02-11T04:17:33;-5.30;99.90
42989;DHT22;28622;43.716;20.668;2023-02-11T04:19:59;-5.20;99.90
42989;DHT22;28622;43.716;20.668;2023-02-11T04:22:24;-5.20;99.90
42989;DHT22;28622;43.716;20.668;2023-02-11T04:24:50;-5.20;99.90
42989;DHT22;28622;43.716;20.668;2023-02-11T04:27:16;-5.20;99.90
42989;DHT22;28622;43.716;20.668;2023-02-11T04:29:42;-5.20;99.90
42989;DHT22;28622;43.716;20.668;2023-02-11T04:32:09;-5.20;99.90
42989;DHT22;28622;43.716;20.668;2023-02-11T04:34:35;-5.20;99.90
42989;DHT22;28622;43.716;20.668;2023-02-11T04:37:01;-5.30;99.90
42989;DHT22;28622;43.716;20.668;2023-02-11T04:39:26;-5.30;99.90
42989;DHT22;28622;43.716;20.668;2023-02-11T04:41:52;-5.30;99.90
42989;DHT22;28622;43.716;20.668;2023-02-11T04:44:18;-5.30;99.90
42989;DHT22;28622;43.716;20.668;2023-02-11T04:46:44;-5.40;99.90
42989;DHT22;28622;43.716;20.668;2023-02-11T04:49:12;-5.40;99.90
42989;DHT22;28622;43.716;20.668;2023-02-11T04:51:38;-5.40;99.90
42989;DHT22;28622;43.716;20.668;2023-02-11T04:54:04;-5.40;99.90
42989;DHT22;28622;43.716;20.668;2023-02-11T04:56:30;-5.30;99.90
42989;DHT22;28622;43.716;20.668;2023-02-11T04:58:55;-5.30;99.90
42989;DHT22;28622;43.716;20.668;2023-02-11T05:01:21;-5.30;99.90
42989;DHT22;28622;43.716;20.668;2023-02-11T05:03:47;-5.30;99.90
42989;DHT22;28622;43.716;20.668;2023-02-11T05:06:13;-5.30;99.90
42989;DHT22;28622;43.716;20.668;2023-02-11T05:08:39;-5.30;99.90
42989;DHT22;28622;43.716;20.668;2023-02-11T05:11:05;-5.20;99.90
42989;DHT22;28622;43.716;20.668;2023-02-11T05:13:32;-5.40;99.90
42989;DHT22;28622;43.716;20.668;2023-02-11T05:15:58;-5.40;99.90
42989;DHT22;28622;43.716;20.668;2023-02-11T05:18:23;-5.40;99.90
42989;DHT22;28622;43.716;20.668;2023-02-11T05:20:49;-5.40;99.90
42989;DHT22;28622;43.716;20.668;2023-02-11T05:23:15;-5.50;99.90
42989;DHT22;28622;43.716;20.668;2023-02-11T05:25:41;-5.60;99.90
42989;DHT22;28622;43.716;20.668;2023-02-11T05:28:06;-5.50;99.90
42989;DHT22;28622;43.716;20.668;2023-02-11T05:30:32;-5.60;99.90
42989;DHT22;28622;43.716;20.668;2023-02-11T05:32:58;-5.60;99.90
42989;DHT22;28622;43.716;20.668;2023-02-11T05:35:23;-5.60;99.90
42989;DHT22;28622;43.716;20.668;2023-02-11T05:37:49;-5.50;99.90
42989;DHT22;28622;43.716;20.668;2023-02-11T05:40:16;-5.50;99.90
42989;DHT22;28622;43.716;20.668;2023-02-11T05:42:41;-5.50;99.90
42989;DHT22;28622;43.716;20.668;2023-02-11T05:45:07;-5.60;99.90
42989;DHT22;28622;43.716;20.668;2023-02-11T05:47:33;-5.60;99.90
42989;DHT22;28622;43.716;20.668;2023-02-11T05:49:59;-5.50;99.90
42989;DHT22;28622;43.716;20.668;2023-02-11T05:52:25;-5.50;99.90
42989;DHT22;28622;43.716;20.668;2023-02-11T05:54:50;-5.60;99.90
42989;DHT22;28622;43.716;20.668;2023-02-11T05:57:16;-5.60;99.90
42989;DHT22;28622;43.716;20.668;2023-02-11T05:59:43;-5.50;99.90
42989;DHT22;28622;43.716;20.668;2023-02-11T06:02:09;-5.50;99.90
42989;DHT22;28622;43.716;20.668;2023-02-11T06:04:36;-5.50;99.90
42989;DHT22;28622;43.716;20.668;2023-02-11T06:07:02;-5.50;99.90
42989;DHT22;28622;43.716;20.668;2023-02-11T06:09:28;-5.50;99.90
42989;DHT22;28622;43.716;20.668;2023-02-11T06:11:54;-5.50;99.90
42989;DHT22;28622;43.716;20.668;2023-02-11T06:14:20;-5.40;99.90
42989;DHT22;28622;43.716;20.668;2023-02-11T06:16:46;-5.40;99.90
42989;DHT22;28622;43.716;20.668;2023-02-11T06:19:12;-5.40;99.90
42989;DHT22;28622;43.716;20.668;2023-02-11T06:21:38;-5.30;99.90
42989;DHT22;28622;43.716;20.668;2023-02-11T06:24:05;-5.30;99.90
42989;DHT22;28622;43.716;20.668;2023-02-11T06:26:31;-5.20;99.90
42989;DHT22;28622;43.716;20.668;2023-02-11T06:28:59;-5.20;99.90
42989;DHT22;28622;43.716;20.668;2023-02-11T06:31:25;-5.10;99.90
42989;DHT22;28622;43.716;20.668;2023-02-11T06:33:51;-5.00;99.90
42989;DHT22;28622;43.716;20.668;2023-02-11T06:36:21;-4.90;99.90
42989;DHT22;28622;43.716;20.668;2023-02-11T06:38:48;-4.80;99.90
42989;DHT22;28622;43.716;20.668;2023-02-11T06:41:16;-4.70;99.90
42989;DHT22;28622;43.716;20.668;2023-02-11T06:43:42;-4.60;99.90
42989;DHT22;28622;43.716;20.668;2023-02-11T06:46:08;-4.60;99.90
42989;DHT22;28622;43.716;20.668;2023-02-11T06:48:34;-4.50;99.90
42989;DHT22;28622;43.716;20.668;2023-02-11T06:51:02;-4.40;99.90
42989;DHT22;28622;43.716;20.668;2023-02-11T06:53:29;-4.20;99.90
42989;DHT22;28622;43.716;20.668;2023-02-11T06:55:55;-3.90;99.90
42989;DHT22;28622;43.716;20.668;2023-02-11T06:58:21;-3.70;99.90
42989;DHT22;28622;43.716;20.668;2023-02-11T07:00:46;-3.40;99.90
42989;DHT22;28622;43.716;20.668;2023-02-11T07:03:12;-3.10;99.90
42989;DHT22;28622;43.716;20.668;2023-02-11T07:05:41;-2.80;99.90
42989;DHT22;28622;43.716;20.668;2023-02-11T07:08:07;-2.60;99.90
42989;DHT22;28622;43.716;20.668;2023-02-11T07:10:33;-2.30;99.90
42989;DHT22;28622;43.716;20.668;2023-02-11T07:12:58;-2.00;99.90
42989;DHT22;28622;43.716;20.668;2023-02-11T07:15:24;-1.70;99.90
42989;DHT22;28622;43.716;20.668;2023-02-11T07:17:50;-1.40;99.90
42989;DHT22;28622;43.716;20.668;2023-02-11T07:20:16;-1.10;99.90
42989;DHT22;28622;43.716;20.668;2023-02-11T07:22:42;-0.80;99.90
42989;DHT22;28622;43.716;20.668;2023-02-11T07:25:07;-0.60;99.90
42989;DHT22;28622;43.716;20.668;2023-02-11T07:27:33;-0.40;99.90
42989;DHT22;28622;43.716;20.668;2023-02-11T07:29:59;-0.30;99.90
42989;DHT22;28622;43.716;20.668;2023-02-11T07:32:25;0.00;99.90
42989;DHT22;28622;43.716;20.668;2023-02-11T07:34:50;0.20;99.90
42989;DHT22;28622;43.716;20.668;2023-02-11T07:37:16;0.10;99.90
42989;DHT22;28622;43.716;20.668;2023-02-11T07:39:42;0.20;99.90
42989;DHT22;28622;43.716;20.668;2023-02-11T07:42:07;0.40;99.90
42989;DHT22;28622;43.716;20.668;2023-02-11T07:44:33;0.50;99.90
42989;DHT22;28622;43.716;20.668;2023-02-11T07:47:01;0.60;99.90
42989;DHT22;28622;43.716;20.668;2023-02-11T07:49:27;0.70;99.90
42989;DHT22;28622;43.716;20.668;2023-02-11T07:51:53;0.70;99.90
42989;DHT22;28622;43.716;20.668;2023-02-11T07:54:19;0.80;99.90
42989;DHT22;28622;43.716;20.668;2023-02-11T07:56:45;1.00;99.90
42989;DHT22;28622;43.716;20.668;2023-02-11T07:59:11;1.10;99.90
42989;DHT22;28622;43.716;20.668;2023-02-11T08:01:37;1.20;99.90
42989;DHT22;28622;43.716;20.668;2023-02-11T08:04:03;1.50;99.90
42989;DHT22;28622;43.716;20.668;2023-02-11T08:06:30;1.70;99.90
42989;DHT22;28622;43.716;20.668;2023-02-11T08:08:57;1.90;99.90
42989;DHT22;28622;43.716;20.668;2023-02-11T08:11:27;2.10;99.50
42989;DHT22;28622;43.716;20.668;2023-02-11T08:13:55;2.20;99.10
42989;DHT22;28622;43.716;20.668;2023-02-11T08:16:29;2.20;98.40
42989;DHT22;28622;43.716;20.668;2023-02-11T08:18:57;2.10;97.80
42989;DHT22;28622;43.716;20.668;2023-02-11T08:21:23;2.40;97.80
42989;DHT22;28622;43.716;20.668;2023-02-11T08:23:49;2.60;97.60
42989;DHT22;28622;43.716;20.668;2023-02-11T08:26:20;2.70;97.00
42989;DHT22;28622;43.716;20.668;2023-02-11T08:28:48;3.40;97.20
42989;DHT22;28622;43.716;20.668;2023-02-11T08:31:19;3.60;96.50
42989;DHT22;28622;43.716;20.668;2023-02-11T08:33:45;3.50;94.50
42989;DHT22;28622;43.716;20.668;2023-02-11T08:36:14;3.50;94.40
42989;DHT22;28622;43.716;20.668;2023-02-11T08:38:40;3.60;94.40
42989;DHT22;28622;43.716;20.668;2023-02-11T08:41:06;3.80;94.20
42989;DHT22;28622;43.716;20.668;2023-02-11T08:43:33;3.80;93.70
42989;DHT22;28622;43.716;20.668;2023-02-11T08:45:59;3.70;93.30
42989;DHT22;28622;43.716;20.668;2023-02-11T08:48:25;4.00;93.40
42989;DHT22;28622;43.716;20.668;2023-02-11T08:50:53;4.30;92.80
42989;DHT22;28622;43.716;20.668;2023-02-11T08:53:19;4.50;92.40
42989;DHT22;28622;43.716;20.668;2023-02-11T08:55:49;4.50;92.00
42989;DHT22;28622;43.716;20.668;2023-02-11T08:58:15;4.70;92.10
42989;DHT22;28622;43.716;20.668;2023-02-11T09:00:41;4.60;91.20
42989;DHT22;28622;43.716;20.668;2023-02-11T09:03:10;4.70;91.20
42989;DHT22;28622;43.716;20.668;2023-02-11T09:05:41;5.00;91.50
42989;DHT22;28622;43.716;20.668;2023-02-11T09:08:07;5.20;91.50
42989;DHT22;28622;43.716;20.668;2023-02-11T09:10:32;5.50;89.50
42989;DHT22;28622;43.716;20.668;2023-02-11T09:12:59;6.00;99.90
42989;DHT22;28622;43.716;20.668;2023-02-11T09:15:24;5.80;99.90
42989;DHT22;28622;43.716;20.668;2023-02-11T09:17:50;5.50;89.50
42989;DHT22;28622;43.716;20.668;2023-02-11T09:20:16;5.50;90.30
42989;DHT22;28622;43.716;20.668;2023-02-11T09:22:42;5.20;90.50
42989;DHT22;28622;43.716;20.668;2023-02-11T09:25:07;5.20;90.40
42989;DHT22;28622;43.716;20.668;2023-02-11T09:27:33;5.40;90.50
42989;DHT22;28622;43.716;20.668;2023-02-11T09:29:59;5.50;90.50
42989;DHT22;28622;43.716;20.668;2023-02-11T09:32:25;5.90;99.90
42989;DHT22;28622;43.716;20.668;2023-02-11T09:34:50;5.80;90.60
42989;DHT22;28622;43.716;20.668;2023-02-11T09:37:16;5.70;90.40
42989;DHT22;28622;43.716;20.668;2023-02-11T09:39:42;5.90;90.20
42989;DHT22;28622;43.716;20.668;2023-02-11T09:42:24;6.10;95.00
42989;DHT22;28622;43.716;20.668;2023-02-11T09:44:57;6.10;93.90
42989;DHT22;28622;43.716;20.668;2023-02-11T09:47:29;6.80;93.70
42989;DHT22;28622;43.716;20.668;2023-02-11T09:50:01;6.50;92.50
42989;DHT22;28622;43.716;20.668;2023-02-11T09:52:57;6.60;91.90
42989;DHT22;28622;43.716;20.668;2023-02-11T09:55:28;6.30;91.70
42989;DHT22;28622;43.716;20.668;2023-02-11T09:57:55;6.20;92.00
42989;DHT22;28622;43.716;20.668;2023-02-11T10:00:36;6.40;91.70
42989;DHT22;28622;43.716;20.668;2023-02-11T10:16:13;5.90;88.90
42989;DHT22;28622;43.716;20.668;2023-02-11T10:21:31;6.30;86.40
42989;DHT22;28622;43.716;20.668;2023-02-11T10:24:04;6.20;87.40
42989;DHT22;28622;43.716;20.668;2023-02-11T10:26:35;7.00;88.70
42989;DHT22;28622;43.716;20.668;2023-02-11T10:29:11;7.00;85.20
42989;DHT22;28622;43.716;20.668;2023-02-11T10:31:41;7.30;86.30
42989;DHT22;28622;43.716;20.668;2023-02-11T10:34:13;7.50;85.50
42989;DHT22;28622;43.716;20.668;2023-02-11T10:36:41;7.80;84.90
42989;DHT22;28622;43.716;20.668;2023-02-11T10:39:18;7.80;82.50
42989;DHT22;28622;43.716;20.668;2023-02-11T10:41:53;7.80;83.50
42989;DHT22;28622;43.716;20.668;2023-02-11T10:44:22;7.70;82.60
42989;DHT22;28622;43.716;20.668;2023-02-11T10:46:49;8.50;89.80
42989;DHT22;28622;43.716;20.668;2023-02-11T10:49:37;8.50;88.40
42989;DHT22;28622;43.716;20.668;2023-02-11T10:52:18;8.40;85.60
42989;DHT22;28622;43.716;20.668;2023-02-11T10:55:13;8.20;85.20
42989;DHT22;28622;43.716;20.668;2023-02-11T10:57:57;8.40;86.30
42989;DHT22;28622;43.716;20.668;2023-02-11T11:00:33;8.10;84.10
42989;DHT22;28622;43.716;20.668;2023-02-11T11:03:24;7.80;83.80
42989;DHT22;28622;43.716;20.668;2023-02-11T11:05:58;8.00;84.00
42989;DHT22;28622;43.716;20.668;2023-02-11T11:08:46;8.00;83.70
42989;DHT22;28622;43.716;20.668;2023-02-11T11:11:19;7.80;85.10
42989;DHT22;28622;43.716;20.668;2023-02-11T11:16:28;7.70;84.90
42989;DHT22;28622;43.716;20.668;2023-02-11T11:21:42;7.30;84.80
42989;DHT22;28622;43.716;20.668;2023-02-11T11:24:23;7.40;86.60
42989;DHT22;28622;43.716;20.668;2023-02-11T11:26:53;7.20;87.00
42989;DHT22;28622;43.716;20.668;2023-02-11T11:29:46;7.20;86.70
42989;DHT22;28622;43.716;20.668;2023-02-11T11:32:23;7.10;86.10
42989;DHT22;28622;43.716;20.668;2023-02-11T11:35:33;7.00;86.60
42989;DHT22;28622;43.716;20.668;2023-02-11T11:37:40;7.10;86.10
42989;DHT22;28622;43.716;20.668;2023-02-11T11:42:41;7.20;87.60
42989;DHT22;28622;43.716;20.668;2023-02-11T11:48:12;7.20;87.00
42989;DHT22;28622;43.716;20.668;2023-02-11T11:51:04;7.40;85.60
42989;DHT22;28622;43.716;20.668;2023-02-11T11:53:37;7.40;85.80
42989;DHT22;28622;43.716;20.668;2023-02-11T11:58:34;7.70;85.40
42989;DHT22;28622;43.716;20.668;2023-02-11T12:06:52;7.90;84.30
42989;DHT22;28622;43.716;20.668;2023-02-11T12:17:56;8.30;85.20
42989;DHT22;28622;43.716;20.668;2023-02-11T12:20:34;8.60;83.10
42989;DHT22;28622;43.716;20.668;2023-02-11T12:39:41;9.10;89.00
42989;DHT22;28622;43.716;20.668;2023-02-11T12:42:37;9.50;90.50
42989;DHT22;28622;43.716;20.668;2023-02-11T12:51:11;9.40;77.20
42989;DHT22;28622;43.716;20.668;2023-02-11T12:56:38;8.90;77.20
42989;DHT22;28622;43.716;20.668;2023-02-11T12:59:13;9.40;79.30
42989;DHT22;28622;43.716;20.668;2023-02-11T13:01:42;9.40;77.70
42989;DHT22;28622;43.716;20.668;2023-02-11T13:04:16;9.40;77.00
42989;DHT22;28622;43.716;20.668;2023-02-11T13:06:51;9.30;77.00
42989;DHT22;28622;43.716;20.668;2023-02-11T13:09:27;9.20;76.90
42989;DHT22;28622;43.716;20.668;2023-02-11T13:11:57;8.90;77.10
42989;DHT22;28622;43.716;20.668;2023-02-11T13:14:46;9.30;77.50
42989;DHT22;28622;43.716;20.668;2023-02-11T13:17:19;9.40;76.60
42989;DHT22;28622;43.716;20.668;2023-02-11T13:20:04;9.30;75.50
42989;DHT22;28622;43.716;20.668;2023-02-11T13:22:47;9.40;77.50
42989;DHT22;28622;43.716;20.668;2023-02-11T13:28:31;10.00;76.10
42989;DHT22;28622;43.716;20.668;2023-02-11T13:31:01;9.90;74.10
42989;DHT22;28622;43.716;20.668;2023-02-11T13:33:38;9.60;73.60
42989;DHT22;28622;43.716;20.668;2023-02-11T13:38:30;9.80;73.50
42989;DHT22;28622;43.716;20.668;2023-02-11T13:41:25;9.90;72.80
42989;DHT22;28622;43.716;20.668;2023-02-11T13:46:57;10.00;74.20
42989;DHT22;28622;43.716;20.668;2023-02-11T13:51:56;10.10;73.90
42989;DHT22;28622;43.716;20.668;2023-02-11T13:54:34;9.80;72.40
42989;DHT22;28622;43.716;20.668;2023-02-11T13:57:20;9.70;74.00
42989;DHT22;28622;43.716;20.668;2023-02-11T13:59:55;9.70;73.80
42989;DHT22;28622;43.716;20.668;2023-02-11T14:02:30;9.50;73.10
42989;DHT22;28622;43.716;20.668;2023-02-11T14:11:55;9.20;75.70
42989;DHT22;28622;43.716;20.668;2023-02-11T14:14:27;9.40;74.70
42989;DHT22;28622;43.716;20.668;2023-02-11T14:22:17;9.40;74.10
42989;DHT22;28622;43.716;20.668;2023-02-11T14:24:54;9.40;74.00
42989;DHT22;28622;43.716;20.668;2023-02-11T14:27:27;9.10;74.00
42989;DHT22;28622;43.716;20.668;2023-02-11T14:30:26;9.00;73.90
42989;DHT22;28622;43.716;20.668;2023-02-11T14:33:07;8.90;73.90
42989;DHT22;28622;43.716;20.668;2023-02-11T14:41:10;8.30;74.80
42989;DHT22;28622;43.716;20.668;2023-02-11T14:43:47;8.10;75.70
42989;DHT22;28622;43.716;20.668;2023-02-11T14:46:17;7.90;75.80
42989;DHT22;28622;43.716;20.668;2023-02-11T14:48:49;7.80;76.80
42989;DHT22;28622;43.716;20.668;2023-02-11T14:53:46;7.50;76.90
42989;DHT22;28622;43.716;20.668;2023-02-11T14:56:24;7.30;77.50
42989;DHT22;28622;43.716;20.668;2023-02-11T14:58:56;7.10;77.70
42989;DHT22;28622;43.716;20.668;2023-02-11T15:01:25;7.00;78.90
42989;DHT22;28622;43.716;20.668;2023-02-11T15:03:52;6.90;79.30
42989;DHT22;28622;43.716;20.668;2023-02-11T15:06:25;6.70;79.20
42989;DHT22;28622;43.716;20.668;2023-02-11T15:09:20;6.70;79.60
42989;DHT22;28622;43.716;20.668;2023-02-11T15:11:50;6.60;79.70
42989;DHT22;28622;43.716;20.668;2023-02-11T15:14:33;6.50;80.10
42989;DHT22;28622;43.716;20.668;2023-02-11T15:17:06;6.30;80.70
42989;DHT22;28622;43.716;20.668;2023-02-11T15:21:59;6.20;81.60
42989;DHT22;28622;43.716;20.668;2023-02-11T15:24:28;6.10;81.60
42989;DHT22;28622;43.716;20.668;2023-02-11T15:27:15;6.00;82.00
42989;DHT22;28622;43.716;20.668;2023-02-11T15:29:48;6.00;82.70
42989;DHT22;28622;43.716;20.668;2023-02-11T15:32:23;6.00;83.60
42989;DHT22;28622;43.716;20.668;2023-02-11T15:34:51;5.90;84.80
42989;DHT22;28622;43.716;20.668;2023-02-11T15:37:26;5.90;84.60
42989;DHT22;28622;43.716;20.668;2023-02-11T15:39:54;5.80;84.90
42989;DHT22;28622;43.716;20.668;2023-02-11T15:42:32;5.80;85.60
42989;DHT22;28622;43.716;20.668;2023-02-11T15:45:41;5.70;84.80
42989;DHT22;28622;43.716;20.668;2023-02-11T15:50:37;5.50;86.10
42989;DHT22;28622;43.716;20.668;2023-02-11T15:55:56;5.40;87.20
42989;DHT22;28622;43.716;20.668;2023-02-11T15:58:23;5.30;88.40
42989;DHT22;28622;43.716;20.668;2023-02-11T16:00:51;5.20;88.70
42989;DHT22;28622;43.716;20.668;2023-02-11T16:03:26;5.10;87.80
42989;DHT22;28622;43.716;20.668;2023-02-11T16:09:01;5.00;88.60
42989;DHT22;28622;43.716;20.668;2023-02-11T16:11:30;5.00;88.40
42989;DHT22;28622;43.716;20.668;2023-02-11T16:13:57;4.90;89.40
42989;DHT22;28622;43.716;20.668;2023-02-11T16:16:30;4.70;89.60
42989;DHT22;28622;43.716;20.668;2023-02-11T16:18:59;4.60;89.90
42989;DHT22;28622;43.716;20.668;2023-02-11T16:21:33;4.50;90.30
42989;DHT22;28622;43.716;20.668;2023-02-11T16:24:01;4.40;91.00
42989;DHT22;28622;43.716;20.668;2023-02-11T16:26:33;4.30;90.60
42989;DHT22;28622;43.716;20.668;2023-02-11T16:29:27;4.20;90.50
42989;DHT22;28622;43.716;20.668;2023-02-11T16:32:23;4.10;90.80
42989;DHT22;28622;43.716;20.668;2023-02-11T16:34:50;4.00;91.50
42989;DHT22;28622;43.716;20.668;2023-02-11T16:37:15;3.90;91.60
42989;DHT22;28622;43.716;20.668;2023-02-11T16:39:41;3.70;91.70
42989;DHT22;28622;43.716;20.668;2023-02-11T16:42:08;3.60;91.70
42989;DHT22;28622;43.716;20.668;2023-02-11T16:44:34;3.40;92.30
42989;DHT22;28622;43.716;20.668;2023-02-11T16:47:01;3.30;92.90
42989;DHT22;28622;43.716;20.668;2023-02-11T16:49:30;3.20;93.50
42989;DHT22;28622;43.716;20.668;2023-02-11T16:51:59;3.10;93.80
42989;DHT22;28622;43.716;20.668;2023-02-11T16:54:28;3.00;93.90
42989;DHT22;28622;43.716;20.668;2023-02-11T16:56:55;2.90;94.10
42989;DHT22;28622;43.716;20.668;2023-02-11T16:59:21;2.80;94.50
42989;DHT22;28622;43.716;20.668;2023-02-11T17:01:47;2.70;94.90
42989;DHT22;28622;43.716;20.668;2023-02-11T17:04:20;2.60;94.90
42989;DHT22;28622;43.716;20.668;2023-02-11T17:06:48;2.60;94.80
42989;DHT22;28622;43.716;20.668;2023-02-11T17:09:26;2.50;95.30
42989;DHT22;28622;43.716;20.668;2023-02-11T17:11:51;2.50;95.30
42989;DHT22;28622;43.716;20.668;2023-02-11T17:14:18;2.50;95.10
42989;DHT22;28622;43.716;20.668;2023-02-11T17:16:45;2.40;94.90
42989;DHT22;28622;43.716;20.668;2023-02-11T17:19:12;2.30;94.90
42989;DHT22;28622;43.716;20.668;2023-02-11T17:21:42;2.30;94.90
42989;DHT22;28622;43.716;20.668;2023-02-11T17:24:08;2.30;95.00
42989;DHT22;28622;43.716;20.668;2023-02-11T17:26:35;2.30;95.30
42989;DHT22;28622;43.716;20.668;2023-02-11T17:29:04;2.20;95.40
42989;DHT22;28622;43.716;20.668;2023-02-11T17:31:30;2.10;95.50
42989;DHT22;28622;43.716;20.668;2023-02-11T17:33:57;2.10;95.60
42989;DHT22;28622;43.716;20.668;2023-02-11T17:36:23;2.10;95.30
42989;DHT22;28622;43.716;20.668;2023-02-11T17:38:49;2.00;95.20
42989;DHT22;28622;43.716;20.668;2023-02-11T17:41:16;2.00;95.00
42989;DHT22;28622;43.716;20.668;2023-02-11T17:43:42;2.00;95.10
42989;DHT22;28622;43.716;20.668;2023-02-11T17:46:08;2.00;95.20
42989;DHT22;28622;43.716;20.668;2023-02-11T17:48:36;1.90;95.10
42989;DHT22;28622;43.716;20.668;2023-02-11T17:51:19;1.90;95.20
42989;DHT22;28622;43.716;20.668;2023-02-11T17:53:45;1.80;95.30
42989;DHT22;28622;43.716;20.668;2023-02-11T17:56:11;1.70;95.20
42989;DHT22;28622;43.716;20.668;2023-02-11T17:58:37;1.50;95.40
42989;DHT22;28622;43.716;20.668;2023-02-11T18:01:02;1.40;95.80
42989;DHT22;28622;43.716;20.668;2023-02-11T18:03:28;1.40;96.00
42989;DHT22;28622;43.716;20.668;2023-02-11T18:05:59;1.40;96.00
42989;DHT22;28622;43.716;20.668;2023-02-11T18:08:25;1.50;96.20
42989;DHT22;28622;43.716;20.668;2023-02-11T18:10:50;1.50;96.10
42989;DHT22;28622;43.716;20.668;2023-02-11T18:13:16;1.50;96.20
42989;DHT22;28622;43.716;20.668;2023-02-11T18:15:42;1.50;96.00